sensor_id;sensor_type;location;lat;lon;timestamp;pressure;altitude;pressure_sealevel;temperature;humidity
20622;BME280;10470;42.670;23.354;2022-12-16T00:01:26;94598.88;;;5.00;100.00
20622;BME280;10470;42.670;23.354;2022-12-16T00:04:12;94600.47;;;4.78;100.00
20622;BME280;10470;42.670;23.354;2022-12-16T00:06:57;94602.97;;;4.89;100.00
20622;BME280;10470;42.670;23.354;2022-12-16T00:09:43;94578.88;;;4.78;100.00
20622;BME280;10470;42.670;23.354;2022-12-16T00:12:28;94606.66;;;4.55;100.00
20622;BME280;10470;42.670;23.354;2022-12-16T00:15:14;94603.84;;;4.82;100.00
20622;BME280;10470;42.670;23.354;2022-12-16T00:17:59;94573.41;;;4.81;100.00
20622;BME280;10470;42.670;23.354;2022-12-16T00:20:46;94596.03;;;4.88;100.00
20622;BME280;10470;42.670;23.354;2022-12-16T00:23:32;94569.69;;;4.75;100.00
20622;BME280;10470;42.670;23.354;2022-12-16T00:26:18;94601.16;;;4.62;100.00
20622;BME280;10470;42.670;23.354;2022-12-16T00:29:03;94578.66;;;4.69;100.00
20622;BME280;10470;42.670;23.354;2022-12-16T00:31:51;94581.28;;;4.92;100.00
20622;BME280;10470;42.670;23.354;2022-12-16T00:34:37;94571.81;;;4.84;100.00
20622;BME280;10470;42.670;23.354;2022-12-16T00:37:22;94571.78;;;4.64;100.00
20622;BME280;10470;42.670;23.354;2022-12-16T00:40:08;94590.09;;;4.76;100.00
20622;BME280;10470;42.670;23.354;2022-12-16T00:42:54;94591.94;;;4.79;100.00
20622;BME280;10470;42.670;23.354;2022-12-16T00:45:39;94574.59;;;4.80;100.00
20622;BME280;10470;42.670;23.354;2022-12-16T00:48:25;94585.81;;;4.99;100.00
20622;BME280;10470;42.670;23.354;2022-12-16T00:51:10;94588.84;;;5.01;100.00
20622;BME280;10470;42.670;23.354;2022-12-16T00:53:56;94545.09;;;4.90;100.00
20622;BME280;10470;42.670;23.354;2022-12-16T00:56:41;94593.88;;;4.79;100.00
20622;BME280;10470;42.670;23.354;2022-12-16T00:59:26;94555.56;;;4.68;100.00
20622;BME280;10470;42.670;23.354;2022-12-16T01:02:12;94558.59;;;4.50;100.00
20622;BME280;10470;42.670;23.354;2022-12-16T01:04:57;94569.09;;;4.64;100.00
20622;BME280;10470;42.670;23.354;2022-12-16T01:07:43;94570.84;;;4.74;100.00
20622;BME280;10470;42.670;23.354;2022-12-16T01:10:28;94565.25;;;4.85;100.00
20622;BME280;10470;42.670;23.354;2022-12-16T01:13:14;94571.53;;;4.78;100.00
20622;BME280;10470;42.670;23.354;2022-12-16T01:16:02;94575.97;;;4.89;100.00
20622;BME280;10470;42.670;23.354;2022-12-16T01:18:48;94570.09;;;4.74;100.00
20622;BME280;10470;42.670;23.354;2022-12-16T01:21:33;94585.28;;;4.64;100.00
20622;BME280;10470;42.670;23.354;2022-12-16T01:24:16;94595.75;;;4.62;100.00
20622;BME280;10470;42.670;23.354;2022-12-16T01:27:01;94572.47;;;4.48;100.00
20622;BME280;10470;42.670;23.354;2022-12-16T01:29:46;94569.44;;;4.46;100.00
20622;BME280;10470;42.670;23.354;2022-12-16T01:32:32;94558.59;;;4.70;100.00
20622;BME280;10470;42.670;23.354;2022-12-16T01:35:17;94535.34;;;4.56;100.00
20622;BME280;10470;42.670;23.354;2022-12-16T01:38:03;94555.75;;;4.57;100.00
20622;BME280;10470;42.670;23.354;2022-12-16T01:40:48;94564.72;;;4.50;100.00
20622;BME280;10470;42.670;23.354;2022-12-16T01:43:26;94545.94;;;4.47;100.00
20622;BME280;10470;42.670;23.354;2022-12-16T01:49:01;94547.91;;;4.43;100.00
20622;BME280;10470;42.670;23.354;2022-12-16T01:51:48;94539.81;;;4.43;100.00
20622;BME280;10470;42.670;23.354;2022-12-16T01:54:37;94527.94;;;4.60;100.00
20622;BME280;10470;42.670;23.354;2022-12-16T01:57:29;94561.41;;;4.43;100.00
20622;BME280;10470;42.670;23.354;2022-12-16T02:00:16;94527.31;;;4.52;100.00
20622;BME280;10470;42.670;23.354;2022-12-16T02:03:02;94544.53;;;4.38;100.00
20622;BME280;10470;42.670;23.354;2022-12-16T02:05:48;94559.84;;;4.22;100.00
20622;BME280;10470;42.670;23.354;2022-12-16T02:08:35;94533.88;;;4.51;100.00
20622;BME280;10470;42.670;23.354;2022-12-16T02:17:43;94534.19;;;4.57;100.00
20622;BME280;10470;42.670;23.354;2022-12-16T02:23:36;94501.03;;;4.76;100.00
20622;BME280;10470;42.670;23.354;2022-12-16T02:41:50;94511.47;;;4.74;100.00
20622;BME280;10470;42.670;23.354;2022-12-16T02:44:11;94510.38;;;4.52;100.00
20622;BME280;10470;42.670;23.354;2022-12-16T02:46:58;94528.63;;;4.64;100.00
20622;BME280;10470;42.670;23.354;2022-12-16T02:49:46;94538.81;;;4.76;100.00
20622;BME280;10470;42.670;23.354;2022-12-16T02:52:33;94533.41;;;4.76;100.00
20622;BME280;10470;42.670;23.354;2022-12-16T02:55:19;94540.00;;;4.75;100.00
20622;BME280;10470;42.670;23.354;2022-12-16T02:58:16;94524.50;;;4.59;100.00
20622;BME280;10470;42.670;23.354;2022-12-16T03:01:16;94567.47;;;4.70;100.00
20622;BME280;10470;42.670;23.354;2022-12-16T03:04:09;94543.06;;;4.54;100.00
20622;BME280;10470;42.670;23.354;2022-12-16T03:06:59;94544.34;;;4.49;100.00
20622;BME280;10470;42.670;23.354;2022-12-16T03:09:46;94560.53;;;4.69;100.00
20622;BME280;10470;42.670;23.354;2022-12-16T03:12:33;94535.69;;;4.78;100.00
20622;BME280;10470;42.670;23.354;2022-12-16T03:15:22;94534.59;;;4.75;100.00
20622;BME280;10470;42.670;23.354;2022-12-16T03:18:10;94538.59;;;4.87;100.00
20622;BME280;10470;42.670;23.354;2022-12-16T03:21:05;94533.31;;;5.00;100.00
20622;BME280;10470;42.670;23.354;2022-12-16T03:24:00;94514.03;;;4.81;100.00
20622;BME280;10470;42.670;23.354;2022-12-16T03:26:52;94527.56;;;4.98;100.00
20622;BME280;10470;42.670;23.354;2022-12-16T03:29:45;94520.66;;;4.77;100.00
20622;BME280;10470;42.670;23.354;2022-12-16T03:32:38;94528.50;;;4.71;100.00
20622;BME280;10470;42.670;23.354;2022-12-16T03:36:12;94506.78;;;4.58;100.00
20622;BME280;10470;42.670;23.354;2022-12-16T03:39:02;94498.06;;;4.51;100.00
20622;BME280;10470;42.670;23.354;2022-12-16T03:41:50;94525.59;;;4.62;100.00
20622;BME280;10470;42.670;23.354;2022-12-16T03:44:38;94547.03;;;4.69;100.00
20622;BME280;10470;42.670;23.354;2022-12-16T03:47:27;94540.19;;;4.45;100.00
20622;BME280;10470;42.670;23.354;2022-12-16T03:50:13;94551.09;;;4.37;100.00
20622;BME280;10470;42.670;23.354;2022-12-16T03:52:59;94553.53;;;4.52;100.00
20622;BME280;10470;42.670;23.354;2022-12-16T03:55:45;94558.66;;;4.46;100.00
20622;BME280;10470;42.670;23.354;2022-12-16T03:58:30;94561.00;;;4.44;100.00
20622;BME280;10470;42.670;23.354;2022-12-16T04:01:16;94580.91;;;4.50;100.00
20622;BME280;10470;42.670;23.354;2022-12-16T04:03:52;94577.88;;;4.48;100.00
20622;BME280;10470;42.670;23.354;2022-12-16T04:06:37;94566.84;;;4.63;100.00
20622;BME280;10470;42.670;23.354;2022-12-16T04:09:22;94565.28;;;4.42;100.00
20622;BME280;10470;42.670;23.354;2022-12-16T04:11:55;94561.97;;;4.54;100.00
20622;BME280;10470;42.670;23.354;2022-12-16T04:14:58;94560.09;;;4.51;100.00
20622;BME280;10470;42.670;23.354;2022-12-16T04:18:03;94561.34;;;4.46;100.00
20622;BME280;10470;42.670;23.354;2022-12-16T04:21:08;94571.97;;;4.33;100.00
20622;BME280;10470;42.670;23.354;2022-12-16T04:24:15;94562.34;;;4.32;100.00
20622;BME280;10470;42.670;23.354;2022-12-16T04:27:05;94554.31;;;4.52;100.00
20622;BME280;10470;42.670;23.354;2022-12-16T04:30:09;94536.16;;;4.53;100.00
20622;BME280;10470;42.670;23.354;2022-12-16T04:33:09;94553.94;;;4.50;100.00
20622;BME280;10470;42.670;23.354;2022-12-16T04:36:14;94552.78;;;4.71;100.00
20622;BME280;10470;42.670;23.354;2022-12-16T04:39:18;94557.34;;;4.74;100.00
20622;BME280;10470;42.670;23.354;2022-12-16T04:42:17;94557.03;;;4.72;100.00
20622;BME280;10470;42.670;23.354;2022-12-16T04:45:21;94541.03;;;4.81;100.00
20622;BME280;10470;42.670;23.354;2022-12-16T04:48:25;94522.97;;;4.98;100.00
20622;BME280;10470;42.670;23.354;2022-12-16T04:51:29;94542.34;;;4.73;100.00
20622;BME280;10470;42.670;23.354;2022-12-16T04:54:23;94552.56;;;4.82;100.00
20622;BME280;10470;42.670;23.354;2022-12-16T04:57:27;94533.81;;;4.95;100.00
20622;BME280;10470;42.670;23.354;2022-12-16T05:00:31;94550.63;;;5.02;100.00
20622;BME280;10470;42.670;23.354;2022-12-16T05:03:35;94542.19;;;5.00;100.00
20622;BME280;10470;42.670;23.354;2022-12-16T05:06:39;94561.28;;;5.10;100.00
20622;BME280;10470;42.670;23.354;2022-12-16T05:09:43;94542.75;;;4.92;100.00
20622;BME280;10470;42.670;23.354;2022-12-16T05:12:47;94564.00;;;4.90;100.00
20622;BME280;10470;42.670;23.354;2022-12-16T05:15:51;94542.00;;;4.91;100.00
20622;BME280;10470;42.670;23.354;2022-12-16T05:18:55;94553.69;;;4.85;100.00
20622;BME280;10470;42.670;23.354;2022-12-16T05:21:59;94544.41;;;4.86;100.00
20622;BME280;10470;42.670;23.354;2022-12-16T05:25:03;94562.25;;;4.99;100.00
20622;BME280;10470;42.670;23.354;2022-12-16T05:28:07;94558.59;;;4.90;100.00
20622;BME280;10470;42.670;23.354;2022-12-16T05:31:11;94561.38;;;4.86;100.00
20622;BME280;10470;42.670;23.354;2022-12-16T05:34:15;94560.75;;;4.78;100.00
20622;BME280;10470;42.670;23.354;2022-12-16T05:37:19;94576.38;;;4.67;100.00
20622;BME280;10470;42.670;23.354;2022-12-16T05:40:23;94606.41;;;4.69;100.00
20622;BME280;10470;42.670;23.354;2022-12-16T05:43:27;94604.69;;;4.79;100.00
20622;BME280;10470;42.670;23.354;2022-12-16T05:46:31;94615.91;;;4.97;100.00
20622;BME280;10470;42.670;23.354;2022-12-16T05:49:35;94551.63;;;4.72;100.00
20622;BME280;10470;42.670;23.354;2022-12-16T05:52:39;94580.75;;;4.81;100.00
20622;BME280;10470;42.670;23.354;2022-12-16T05:55:38;94600.94;;;4.93;100.00
20622;BME280;10470;42.670;23.354;2022-12-16T05:58:42;94561.25;;;4.93;100.00
20622;BME280;10470;42.670;23.354;2022-12-16T06:01:46;94599.56;;;4.85;100.00
20622;BME280;10470;42.670;23.354;2022-12-16T06:04:50;94622.25;;;4.87;100.00
20622;BME280;10470;42.670;23.354;2022-12-16T06:07:37;94603.09;;;4.81;100.00
20622;BME280;10470;42.670;23.354;2022-12-16T06:10:41;94637.06;;;4.79;100.00
20622;BME280;10470;42.670;23.354;2022-12-16T06:13:45;94611.41;;;4.91;100.00
20622;BME280;10470;42.670;23.354;2022-12-16T06:16:49;94593.75;;;4.66;100.00
20622;BME280;10470;42.670;23.354;2022-12-16T06:19:52;94615.41;;;4.63;100.00
20622;BME280;10470;42.670;23.354;2022-12-16T06:22:56;94652.06;;;4.60;100.00
20622;BME280;10470;42.670;23.354;2022-12-16T06:26:00;94634.16;;;4.70;100.00
20622;BME280;10470;42.670;23.354;2022-12-16T06:29:03;94622.09;;;4.54;100.00
20622;BME280;10470;42.670;23.354;2022-12-16T06:32:07;94636.88;;;4.90;100.00
20622;BME280;10470;42.670;23.354;2022-12-16T06:35:11;94607.22;;;4.66;100.00
20622;BME280;10470;42.670;23.354;2022-12-16T06:38:15;94614.44;;;4.93;100.00
20622;BME280;10470;42.670;23.354;2022-12-16T06:41:19;94605.94;;;4.94;100.00
20622;BME280;10470;42.670;23.354;2022-12-16T06:44:37;94577.06;;;4.71;100.00
20622;BME280;10470;42.670;23.354;2022-12-16T06:47:42;94620.69;;;4.90;100.00
20622;BME280;10470;42.670;23.354;2022-12-16T06:50:46;94605.78;;;4.81;100.00
20622;BME280;10470;42.670;23.354;2022-12-16T06:53:50;94616.13;;;4.87;100.00
20622;BME280;10470;42.670;23.354;2022-12-16T06:56:54;94578.31;;;4.87;100.00
20622;BME280;10470;42.670;23.354;2022-12-16T06:59:58;94616.66;;;4.98;100.00
20622;BME280;10470;42.670;23.354;2022-12-16T07:03:01;94558.69;;;4.86;100.00
20622;BME280;10470;42.670;23.354;2022-12-16T07:06:05;94623.56;;;4.79;100.00
20622;BME280;10470;42.670;23.354;2022-12-16T07:09:09;94608.25;;;4.96;100.00
20622;BME280;10470;42.670;23.354;2022-12-16T07:12:00;94618.13;;;4.82;100.00
20622;BME280;10470;42.670;23.354;2022-12-16T07:15:04;94660.88;;;4.84;100.00
20622;BME280;10470;42.670;23.354;2022-12-16T07:18:08;94593.56;;;4.97;100.00
20622;BME280;10470;42.670;23.354;2022-12-16T07:21:12;94599.16;;;4.86;100.00
20622;BME280;10470;42.670;23.354;2022-12-16T07:24:16;94587.94;;;4.88;100.00
20622;BME280;10470;42.670;23.354;2022-12-16T07:27:20;94622.69;;;5.06;100.00
20622;BME280;10470;42.670;23.354;2022-12-16T07:30:24;94650.13;;;5.24;100.00
20622;BME280;10470;42.670;23.354;2022-12-16T07:33:28;94564.22;;;4.99;100.00
20622;BME280;10470;42.670;23.354;2022-12-16T07:36:32;94593.78;;;5.06;100.00
20622;BME280;10470;42.670;23.354;2022-12-16T07:39:36;94627.34;;;5.25;100.00
20622;BME280;10470;42.670;23.354;2022-12-16T07:42:41;94629.13;;;5.52;100.00
20622;BME280;10470;42.670;23.354;2022-12-16T07:45:45;94624.91;;;5.51;100.00
20622;BME280;10470;42.670;23.354;2022-12-16T07:48:45;94616.41;;;5.68;100.00
20622;BME280;10470;42.670;23.354;2022-12-16T07:51:49;94612.09;;;5.71;100.00
20622;BME280;10470;42.670;23.354;2022-12-16T07:54:53;94634.66;;;5.81;100.00
20622;BME280;10470;42.670;23.354;2022-12-16T07:57:57;94629.19;;;5.84;100.00
20622;BME280;10470;42.670;23.354;2022-12-16T08:00:53;94611.19;;;5.78;100.00
20622;BME280;10470;42.670;23.354;2022-12-16T08:03:47;94612.44;;;5.73;100.00
20622;BME280;10470;42.670;23.354;2022-12-16T08:06:50;94649.88;;;5.75;100.00
20622;BME280;10470;42.670;23.354;2022-12-16T08:09:54;94641.25;;;6.00;100.00
20622;BME280;10470;42.670;23.354;2022-12-16T08:13:00;94652.69;;;5.87;100.00
20622;BME280;10470;42.670;23.354;2022-12-16T08:15:45;94636.25;;;5.98;100.00
20622;BME280;10470;42.670;23.354;2022-12-16T08:18:49;94631.75;;;5.91;100.00
20622;BME280;10470;42.670;23.354;2022-12-16T08:21:53;94642.53;;;6.28;100.00
20622;BME280;10470;42.670;23.354;2022-12-16T08:24:57;94641.25;;;6.16;100.00
20622;BME280;10470;42.670;23.354;2022-12-16T08:27:55;94649.25;;;6.03;100.00
20622;BME280;10470;42.670;23.354;2022-12-16T08:31:00;94632.38;;;6.16;100.00
20622;BME280;10470;42.670;23.354;2022-12-16T08:34:03;94633.72;;;6.24;100.00
20622;BME280;10470;42.670;23.354;2022-12-16T08:37:07;94616.06;;;6.36;100.00
20622;BME280;10470;42.670;23.354;2022-12-16T08:40:11;94656.38;;;5.97;100.00
20622;BME280;10470;42.670;23.354;2022-12-16T08:43:15;94636.94;;;6.35;100.00
20622;BME280;10470;42.670;23.354;2022-12-16T08:46:19;94620.38;;;6.17;100.00
20622;BME280;10470;42.670;23.354;2022-12-16T08:49:23;94618.59;;;6.10;100.00
20622;BME280;10470;42.670;23.354;2022-12-16T08:52:09;94609.22;;;6.31;100.00
20622;BME280;10470;42.670;23.354;2022-12-16T08:55:13;94621.91;;;6.34;100.00
20622;BME280;10470;42.670;23.354;2022-12-16T08:58:17;94592.03;;;6.54;100.00
20622;BME280;10470;42.670;23.354;2022-12-16T09:01:21;94578.84;;;6.40;100.00
20622;BME280;10470;42.670;23.354;2022-12-16T09:04:25;94623.25;;;6.26;100.00
20622;BME280;10470;42.670;23.354;2022-12-16T09:07:29;94573.84;;;6.84;100.00
20622;BME280;10470;42.670;23.354;2022-12-16T09:10:33;94551.66;;;6.60;100.00
20622;BME280;10470;42.670;23.354;2022-12-16T09:13:37;94577.31;;;6.55;100.00
20622;BME280;10470;42.670;23.354;2022-12-16T09:16:41;94586.75;;;6.92;100.00
20622;BME280;10470;42.670;23.354;2022-12-16T09:19:45;94563.16;;;6.93;100.00
20622;BME280;10470;42.670;23.354;2022-12-16T09:22:49;94587.19;;;6.91;100.00
20622;BME280;10470;42.670;23.354;2022-12-16T09:25:53;94566.66;;;7.06;100.00
20622;BME280;10470;42.670;23.354;2022-12-16T09:28:57;94549.44;;;7.13;100.00
20622;BME280;10470;42.670;23.354;2022-12-16T09:32:01;94564.34;;;7.47;100.00
20622;BME280;10470;42.670;23.354;2022-12-16T09:35:05;94537.22;;;7.59;100.00
20622;BME280;10470;42.670;23.354;2022-12-16T09:38:09;94547.13;;;7.66;100.00
20622;BME280;10470;42.670;23.354;2022-12-16T09:41:30;94528.88;;;7.41;100.00
20622;BME280;10470;42.670;23.354;2022-12-16T09:44:50;94561.09;;;7.77;100.00
20622;BME280;10470;42.670;23.354;2022-12-16T09:48:14;94525.84;;;7.90;100.00
20622;BME280;10470;42.670;23.354;2022-12-16T09:51:25;94560.09;;;8.22;100.00
20622;BME280;10470;42.670;23.354;2022-12-16T09:54:31;94530.31;;;8.44;100.00
20622;BME280;10470;42.670;23.354;2022-12-16T09:57:37;94551.25;;;8.44;100.00
20622;BME280;10470;42.670;23.354;2022-12-16T10:00:41;94541.19;;;8.66;100.00
20622;BME280;10470;42.670;23.354;2022-12-16T10:03:45;94544.94;;;8.47;100.00
20622;BME280;10470;42.670;23.354;2022-12-16T10:06:48;94568.56;;;8.94;100.00
20622;BME280;10470;42.670;23.354;2022-12-16T10:13:14;94554.41;;;9.21;100.00
20622;BME280;10470;42.670;23.354;2022-12-16T10:19:51;94582.97;;;9.79;100.00
20622;BME280;10470;42.670;23.354;2022-12-16T10:22:57;94577.84;;;9.90;100.00
20622;BME280;10470;42.670;23.354;2022-12-16T10:29:38;94561.88;;;10.60;100.00
20622;BME280;10470;42.670;23.354;2022-12-16T10:32:46;94572.16;;;11.21;100.00
20622;BME280;10470;42.670;23.354;2022-12-16T10:35:51;94581.53;;;11.38;100.00
20622;BME280;10470;42.670;23.354;2022-12-16T10:39:00;94561.94;;;11.49;100.00
20622;BME280;10470;42.670;23.354;2022-12-16T10:42:06;94586.19;;;11.56;100.00
20622;BME280;10470;42.670;23.354;2022-12-16T10:45:24;94607.81;;;12.30;100.00
20622;BME280;10470;42.670;23.354;2022-12-16T10:48:31;94597.41;;;12.67;100.00
20622;BME280;10470;42.670;23.354;2022-12-16T10:51:35;94595.03;;;12.36;100.00
20622;BME280;10470;42.670;23.354;2022-12-16T10:54:43;94592.47;;;12.56;100.00
20622;BME280;10470;42.670;23.354;2022-12-16T10:58:05;94600.06;;;13.00;100.00
20622;BME280;10470;42.670;23.354;2022-12-16T11:01:24;94592.53;;;13.34;100.00
20622;BME280;10470;42.670;23.354;2022-12-16T11:04:34;94605.09;;;12.78;100.00
20622;BME280;10470;42.670;23.354;2022-12-16T11:07:52;94621.44;;;12.87;100.00
20622;BME280;10470;42.670;23.354;2022-12-16T11:10:39;94600.31;;;12.87;100.00
20622;BME280;10470;42.670;23.354;2022-12-16T11:13:43;94630.63;;;12.99;100.00
20622;BME280;10470;42.670;23.354;2022-12-16T11:17:17;94600.00;;;13.78;100.00
20622;BME280;10470;42.670;23.354;2022-12-16T11:20:23;94618.19;;;12.98;100.00
20622;BME280;10470;42.670;23.354;2022-12-16T11:23:27;94589.88;;;13.69;100.00
20622;BME280;10470;42.670;23.354;2022-12-16T11:26:32;94604.00;;;14.27;100.00
20622;BME280;10470;42.670;23.354;2022-12-16T11:29:57;94599.09;;;14.52;100.00
20622;BME280;10470;42.670;23.354;2022-12-16T11:33:18;94615.34;;;14.70;100.00
20622;BME280;10470;42.670;23.354;2022-12-16T11:36:24;94600.13;;;15.10;100.00
20622;BME280;10470;42.670;23.354;2022-12-16T11:39:30;94616.94;;;15.90;100.00
20622;BME280;10470;42.670;23.354;2022-12-16T11:42:35;94617.19;;;14.99;100.00
20622;BME280;10470;42.670;23.354;2022-12-16T11:45:40;94618.75;;;15.47;100.00
20622;BME280;10470;42.670;23.354;2022-12-16T11:48:58;94599.44;;;15.88;100.00
20622;BME280;10470;42.670;23.354;2022-12-16T11:52:04;94579.13;;;16.54;100.00
20622;BME280;10470;42.670;23.354;2022-12-16T11:58:47;94616.06;;;16.79;100.00
20622;BME280;10470;42.670;23.354;2022-12-16T12:01:58;94608.19;;;16.61;100.00
20622;BME280;10470;42.670;23.354;2022-12-16T12:04:58;94602.22;;;17.22;100.00
20622;BME280;10470;42.670;23.354;2022-12-16T12:11:44;94582.94;;;16.20;100.00
20622;BME280;10470;42.670;23.354;2022-12-16T12:15:02;94578.16;;;16.57;100.00
20622;BME280;10470;42.670;23.354;2022-12-16T12:18:38;94608.19;;;15.92;100.00
20622;BME280;10470;42.670;23.354;2022-12-16T12:22:03;94582.72;;;16.72;100.00
20622;BME280;10470;42.670;23.354;2022-12-16T12:25:09;94576.78;;;16.79;100.00
20622;BME280;10470;42.670;23.354;2022-12-16T12:42:06;94578.69;;;16.62;100.00
20622;BME280;10470;42.670;23.354;2022-12-16T12:49:14;94563.31;;;16.01;100.00
20622;BME280;10470;42.670;23.354;2022-12-16T12:52:25;94576.72;;;16.25;100.00
20622;BME280;10470;42.670;23.354;2022-12-16T12:58:47;94572.97;;;16.28;100.00
20622;BME280;10470;42.670;23.354;2022-12-16T13:01:54;94587.69;;;16.62;100.00
20622;BME280;10470;42.670;23.354;2022-12-16T13:04:59;94579.88;;;16.55;100.00
20622;BME280;10470;42.670;23.354;2022-12-16T13:08:42;94582.78;;;16.34;100.00
20622;BME280;10470;42.670;23.354;2022-12-16T13:15:31;94480.50;;;14.98;100.00
20622;BME280;10470;42.670;23.354;2022-12-16T13:18:35;94544.53;;;15.67;100.00
20622;BME280;10470;42.670;23.354;2022-12-16T13:24:47;94563.22;;;15.63;100.00
20622;BME280;10470;42.670;23.354;2022-12-16T13:27:54;94559.66;;;15.57;100.00
20622;BME280;10470;42.670;23.354;2022-12-16T13:31:02;94544.25;;;14.87;100.00
20622;BME280;10470;42.670;23.354;2022-12-16T13:37:25;94546.91;;;15.28;100.00
20622;BME280;10470;42.670;23.354;2022-12-16T13:40:47;94576.28;;;15.22;100.00
20622;BME280;10470;42.670;23.354;2022-12-16T13:43:56;94570.34;;;15.03;100.00
20622;BME280;10470;42.670;23.354;2022-12-16T13:47:00;94596.81;;;14.65;100.00
20622;BME280;10470;42.670;23.354;2022-12-16T13:53:43;94588.13;;;14.87;100.00
20622;BME280;10470;42.670;23.354;2022-12-16T13:56:50;94578.53;;;14.77;100.00
20622;BME280;10470;42.670;23.354;2022-12-16T13:59:54;94592.03;;;14.80;100.00
20622;BME280;10470;42.670;23.354;2022-12-16T14:02:59;94584.00;;;14.56;100.00
20622;BME280;10470;42.670;23.354;2022-12-16T14:06:14;94600.28;;;14.45;100.00
20622;BME280;10470;42.670;23.354;2022-12-16T14:09:35;94605.34;;;14.52;100.00
20622;BME280;10470;42.670;23.354;2022-12-16T14:13:01;94573.88;;;14.12;100.00
20622;BME280;10470;42.670;23.354;2022-12-16T14:16:28;94604.09;;;14.18;100.00
20622;BME280;10470;42.670;23.354;2022-12-16T14:23:59;94615.16;;;14.24;100.00
20622;BME280;10470;42.670;23.354;2022-12-16T14:26:42;94600.38;;;13.86;100.00
20622;BME280;10470;42.670;23.354;2022-12-16T14:29:47;94607.34;;;13.87;100.00
20622;BME280;10470;42.670;23.354;2022-12-16T14:32:51;94608.50;;;13.80;100.00
20622;BME280;10470;42.670;23.354;2022-12-16T14:35:55;94606.41;;;13.60;100.00
20622;BME280;10470;42.670;23.354;2022-12-16T14:38:59;94576.84;;;13.79;100.00
20622;BME280;10470;42.670;23.354;2022-12-16T14:45:31;94587.16;;;13.54;100.00
20622;BME280;10470;42.670;23.354;2022-12-16T14:48:39;94580.41;;;13.26;100.00
20622;BME280;10470;42.670;23.354;2022-12-16T14:51:46;94596.78;;;13.11;100.00
20622;BME280;10470;42.670;23.354;2022-12-16T14:54:50;94578.34;;;13.21;100.00
20622;BME280;10470;42.670;23.354;2022-12-16T14:58:02;94600.63;;;12.89;100.00
20622;BME280;10470;42.670;23.354;2022-12-16T15:01:18;94591.06;;;13.24;100.00
20622;BME280;10470;42.670;23.354;2022-12-16T15:04:23;94582.03;;;12.94;100.00
20622;BME280;10470;42.670;23.354;2022-12-16T15:07:32;94581.22;;;13.17;100.00
20622;BME280;10470;42.670;23.354;2022-12-16T15:10:38;94585.09;;;13.10;100.00
20622;BME280;10470;42.670;23.354;2022-12-16T15:13:42;94573.06;;;12.93;100.00
20622;BME280;10470;42.670;23.354;2022-12-16T15:16:49;94574.53;;;13.03;100.00
20622;BME280;10470;42.670;23.354;2022-12-16T15:20:21;94568.25;;;12.88;100.00
20622;BME280;10470;42.670;23.354;2022-12-16T15:23:28;94565.41;;;12.82;100.00
20622;BME280;10470;42.670;23.354;2022-12-16T15:26:34;94567.56;;;12.78;100.00
20622;BME280;10470;42.670;23.354;2022-12-16T15:29:40;94591.00;;;12.94;100.00
20622;BME280;10470;42.670;23.354;2022-12-16T15:32:51;94567.41;;;12.82;100.00
20622;BME280;10470;42.670;23.354;2022-12-16T15:36:00;94562.56;;;12.77;100.00
20622;BME280;10470;42.670;23.354;2022-12-16T15:39:16;94606.88;;;12.81;100.00
20622;BME280;10470;42.670;23.354;2022-12-16T15:42:26;94569.75;;;12.89;100.00
20622;BME280;10470;42.670;23.354;2022-12-16T15:45:31;94608.19;;;12.95;100.00
20622;BME280;10470;42.670;23.354;2022-12-16T15:48:36;94596.84;;;12.87;100.00
20622;BME280;10470;42.670;23.354;2022-12-16T15:51:49;94603.41;;;12.80;100.00
20622;BME280;10470;42.670;23.354;2022-12-16T15:54:53;94603.34;;;12.65;100.00
20622;BME280;10470;42.670;23.354;2022-12-16T15:57:58;94609.91;;;12.83;100.00
20622;BME280;10470;42.670;23.354;2022-12-16T16:01:02;94590.25;;;12.70;100.00
20622;BME280;10470;42.670;23.354;2022-12-16T16:04:28;94620.25;;;12.79;100.00
20622;BME280;10470;42.670;23.354;2022-12-16T16:07:32;94614.34;;;12.80;100.00
20622;BME280;10470;42.670;23.354;2022-12-16T16:10:36;94601.25;;;12.84;100.00
20622;BME280;10470;42.670;23.354;2022-12-16T16:13:40;94603.19;;;12.69;100.00
20622;BME280;10470;42.670;23.354;2022-12-16T16:16:44;94603.81;;;12.64;100.00
20622;BME280;10470;42.670;23.354;2022-12-16T16:19:48;94610.69;;;12.59;100.00
20622;BME280;10470;42.670;23.354;2022-12-16T16:22:52;94607.13;;;12.44;100.00
20622;BME280;10470;42.670;23.354;2022-12-16T16:25:56;94590.72;;;12.44;100.00
20622;BME280;10470;42.670;23.354;2022-12-16T16:29:01;94603.63;;;12.43;100.00
20622;BME280;10470;42.670;23.354;2022-12-16T16:32:07;94627.81;;;12.36;100.00
20622;BME280;10470;42.670;23.354;2022-12-16T16:35:12;94604.03;;;12.51;100.00
20622;BME280;10470;42.670;23.354;2022-12-16T16:38:26;94618.13;;;12.26;100.00
20622;BME280;10470;42.670;23.354;2022-12-16T16:41:31;94604.22;;;12.14;100.00
20622;BME280;10470;42.670;23.354;2022-12-16T16:44:34;94629.38;;;12.18;100.00
20622;BME280;10470;42.670;23.354;2022-12-16T16:47:39;94623.94;;;12.18;100.00
20622;BME280;10470;42.670;23.354;2022-12-16T16:50:42;94620.19;;;12.07;100.00
20622;BME280;10470;42.670;23.354;2022-12-16T16:53:47;94633.41;;;11.99;100.00
20622;BME280;10470;42.670;23.354;2022-12-16T16:56:51;94602.59;;;11.98;100.00
20622;BME280;10470;42.670;23.354;2022-12-16T16:59:55;94607.97;;;11.74;100.00
20622;BME280;10470;42.670;23.354;2022-12-16T17:02:59;94612.84;;;11.70;100.00
20622;BME280;10470;42.670;23.354;2022-12-16T17:06:03;94606.91;;;11.72;100.00
20622;BME280;10470;42.670;23.354;2022-12-16T17:09:07;94613.47;;;11.65;100.00